Time;durP1;ratioP1;P1;durP2;ratioP2;P2;SDS_P1;SDS_P2;PMS_P1;PMS_P2;Temp;Humidity;BMP_temperature;BMP_pressure;BME280_temperature;BME280_humidity;BME280_pressure;Samples;Min_cycle;Max_cycle;Signal;HPM_P1;HPM_P2
2021/11/01 00:01:57;;;;;;;8.90;5.35;;;;;;;17.74;71.18;99063.81;4960739;28;120647;-70
2021/11/01 00:04:22;;;;;;;11.20;5.35;;;;;;;17.75;71.21;99079.16;4976286;28;121628;-70
2021/11/01 00:06:48;;;;;;;12.25;7.43;;;;;;;17.78;71.10;99102.28;4976242;28;119538;-70
2021/11/01 00:09:14;;;;;;;11.82;7.35;;;;;;;17.74;71.03;99107.41;4975333;28;119673;-70
2021/11/01 00:11:40;;;;;;;17.13;8.95;;;;;;;17.79;71.07;99132.25;4976322;28;120598;-70
2021/11/01 00:14:05;;;;;;;6.28;4.68;;;;;;;17.76;71.32;99133.34;4968877;28;120856;-70
2021/11/01 00:16:31;;;;;;;10.23;6.30;;;;;;;17.74;70.83;99135.13;4971982;28;119584;-70
2021/11/01 00:18:57;;;;;;;7.75;3.97;;;;;;;17.76;70.48;99155.53;4951558;28;120967;-70
2021/11/01 00:21:24;;;;;;;6.72;2.80;;;;;;;17.73;69.45;99169.69;4969406;28;120371;-70
2021/11/01 00:23:51;;;;;;;8.32;3.92;;;;;;;17.67;69.41;99167.03;4950080;28;119576;-70
2021/11/01 00:26:17;;;;;;;9.05;2.40;;;;;;;17.64;68.92;99173.63;4981712;28;119955;-70
2021/11/01 00:28:44;;;;;;;8.27;1.48;;;;;;;17.60;68.46;99173.22;4982919;28;119428;-70
2021/11/01 00:31:13;;;;;;;6.00;2.35;;;;;;;17.52;68.24;99200.09;4979858;28;119943;-70
2021/11/01 00:33:39;;;;;;;6.60;1.77;;;;;;;17.43;67.57;99194.97;4979614;28;121875;-70
2021/11/01 00:36:06;;;;;;;12.63;1.42;;;;;;;17.32;67.68;99201.47;4979155;28;119758;-70
2021/11/01 00:38:32;;;;;;;8.93;1.48;;;;;;;17.28;67.60;99205.84;4968079;28;120286;-70
2021/11/01 00:40:59;;;;;;;11.07;1.70;;;;;;;17.18;67.53;99197.94;4972367;28;119622;-70
2021/11/01 00:43:25;;;;;;;12.85;2.00;;;;;;;17.13;67.48;99204.34;4985848;28;120109;-70
2021/11/01 00:45:52;;;;;;;12.68;2.38;;;;;;;17.10;67.47;99202.63;4982756;28;120048;-70
2021/11/01 00:48:17;;;;;;;11.32;1.92;;;;;;;16.97;67.95;99158.28;4970245;28;123190;-70
2021/11/01 00:50:45;;;;;;;8.68;1.98;;;;;;;17.03;67.85;99153.38;4963120;28;119972;-70
2021/11/01 00:53:10;;;;;;;10.15;1.60;;;;;;;17.03;68.07;99160.94;4978550;28;120655;-70
2021/11/01 00:55:50;;;;;;;12.85;2.30;;;;;;;17.00;68.00;99196.00;4987608;28;119723;-70
2021/11/01 00:58:17;;;;;;;10.43;1.98;;;;;;;16.99;68.11;99191.00;4977179;28;122729;-70
2021/11/01 01:00:43;;;;;;;10.35;1.60;;;;;;;16.96;68.01;99178.94;4983614;28;120050;-70
2021/11/01 01:03:10;;;;;;;9.35;1.90;;;;;;;16.95;68.10;99166.38;4951703;28;119685;-70
2021/11/01 01:05:37;;;;;;;9.20;1.42;;;;;;;16.94;68.29;99183.53;4972566;28;119851;-70
2021/11/01 01:08:03;;;;;;;11.30;1.83;;;;;;;16.87;68.19;99157.97;4978191;28;120356;-70
2021/11/01 01:10:29;;;;;;;8.02;1.70;;;;;;;16.91;68.40;99163.19;4979967;28;120846;-70
2021/11/01 01:12:57;;;;;;;12.52;2.00;;;;;;;16.87;68.47;99155.19;4985665;28;119519;-70
2021/11/01 01:15:26;;;;;;;10.75;2.10;;;;;;;16.90;68.41;99186.63;4970946;28;119430;-70
2021/11/01 01:17:52;;;;;;;7.07;1.30;;;;;;;16.88;67.99;99180.88;4941172;28;120131;-70
2021/11/01 01:20:20;;;;;;;9.57;1.70;;;;;;;16.87;67.92;99184.91;4977561;28;119811;-70
2021/11/01 01:22:47;;;;;;;6.13;1.40;;;;;;;16.81;67.75;99171.16;4953879;28;120150;-70
2021/11/01 01:25:25;;;;;;;6.68;1.45;;;;;;;16.84;68.32;99183.97;4967398;28;120152;-71
2021/11/01 01:27:55;;;;;;;6.80;1.40;;;;;;;16.82;67.86;99175.44;4979572;28;119985;-70
2021/11/01 01:30:25;;;;;;;13.55;1.60;;;;;;;16.81;67.82;99170.44;4972428;28;121360;-70
2021/11/01 01:32:53;;;;;;;10.02;1.80;;;;;;;16.74;67.48;99159.97;4974058;28;119358;-70
2021/11/01 01:35:19;;;;;;;7.10;1.23;;;;;;;16.70;67.50;99159.53;4965563;28;122577;-70
2021/11/01 01:37:44;;;;;;;9.27;1.40;;;;;;;16.65;67.31;99149.28;4969565;28;119711;-70
2021/11/01 01:40:11;;;;;;;6.07;1.52;;;;;;;16.62;67.43;99151.06;4974664;28;119993;-70
2021/11/01 01:42:39;;;;;;;7.63;1.90;;;;;;;16.59;67.37;99157.69;4975815;28;119393;-71
2021/11/01 01:45:07;;;;;;;9.45;1.67;;;;;;;16.54;66.94;99159.22;4940329;28;121880;-70
2021/11/01 01:47:33;;;;;;;12.20;1.75;;;;;;;16.48;67.67;99155.81;4959741;28;119846;-70
2021/11/01 01:50:02;;;;;;;12.48;1.63;;;;;;;16.47;67.44;99170.94;4975717;28;119502;-70
2021/11/01 01:52:30;;;;;;;10.52;2.28;;;;;;;16.42;67.33;99168.25;4980933;28;120031;-70
2021/11/01 01:54:56;;;;;;;15.65;2.40;;;;;;;16.40;67.66;99177.09;4976982;28;119897;-70
2021/11/01 01:57:22;;;;;;;9.10;1.40;;;;;;;16.34;67.44;99162.59;4949954;28;119527;-70
2021/11/01 01:59:48;;;;;;;13.55;2.08;;;;;;;16.30;67.69;99162.13;4971451;28;121966;-70
2021/11/01 02:02:14;;;;;;;18.17;2.63;;;;;;;16.28;67.86;99170.97;4977822;28;119993;-70
2021/11/01 02:04:40;;;;;;;14.68;2.22;;;;;;;16.24;67.60;99155.94;4976052;28;121107;-70
2021/11/01 02:07:11;;;;;;;14.35;2.15;;;;;;;16.23;67.54;99173.81;4957521;28;120071;-70
2021/11/01 02:09:52;;;;;;;12.88;1.95;;;;;;;16.22;67.62;99166.78;4957314;28;120132;-70
2021/11/01 02:12:35;;;;;;;15.52;2.67;;;;;;;16.19;67.79;99178.91;4959539;28;120657;-70
2021/11/01 02:15:09;;;;;;;14.88;2.20;;;;;;;16.15;67.62;99173.69;4978488;28;119949;-70
2021/11/01 02:17:36;;;;;;;16.83;2.75;;;;;;;16.13;67.52;99170.69;4976221;28;119472;-70
2021/11/01 02:20:07;;;;;;;15.10;2.08;;;;;;;16.12;67.56;99174.00;4966098;28;120079;-70
2021/11/01 02:22:53;;;;;;;18.30;2.13;;;;;;;16.11;67.81;99170.47;4973528;28;120334;-70
2021/11/01 02:25:42;;;;;;;18.65;2.08;;;;;;;16.11;67.89;99167.72;4986701;28;119655;-71
2021/11/01 02:28:10;;;;;;;21.02;2.88;;;;;;;16.09;67.45;99180.56;4960064;28;119959;-70
2021/11/01 02:30:44;;;;;;;10.85;2.20;;;;;;;16.07;67.90;99178.31;4959802;28;123702;-70
2021/11/01 02:33:11;;;;;;;;;;;;;;;16.02;67.77;99170.84;4990399;28;120608;-70
2021/11/01 02:35:38;;;;;;;20.85;2.50;;;;;;;15.98;67.58;99180.72;4978506;28;119560;-70
2021/11/01 02:38:05;;;;;;;12.02;2.25;;;;;;;15.98;67.92;99181.47;4975025;28;119592;-70
2021/11/01 02:40:32;;;;;;;13.30;2.65;;;;;;;15.98;68.09;99175.19;4958621;28;120754;-71
2021/11/01 02:42:58;;;;;;;14.80;2.35;;;;;;;15.93;67.97;99160.91;4976033;28;120144;-70
2021/11/01 02:45:26;;;;;;;19.88;2.60;;;;;;;15.94;67.82;99170.69;4983004;28;120047;-70
2021/11/01 02:47:54;;;;;;;17.85;2.70;;;;;;;15.93;67.72;99169.22;4974385;28;119496;-70
2021/11/01 02:50:20;;;;;;;15.45;2.83;;;;;;;15.93;67.78;99163.69;4977545;28;120008;-70
2021/11/01 02:52:46;;;;;;;15.50;3.00;;;;;;;15.89;67.63;99163.25;4957564;28;122517;-71
2021/11/01 02:55:14;;;;;;;22.38;3.00;;;;;;;15.91;67.54;99165.47;4959822;28;119480;-70
2021/11/01 02:57:42;;;;;;;17.55;3.03;;;;;;;15.88;67.47;99164.50;4958919;28;120734;-70
2021/11/01 03:00:10;;;;;;;19.77;2.75;;;;;;;15.88;67.54;99164.50;4976918;28;119740;-69
2021/11/01 03:02:38;;;;;;;21.13;3.33;;;;;;;15.81;67.45;99150.53;4940437;28;119649;-70
2021/11/01 03:05:08;;;;;;;14.13;2.88;;;;;;;15.86;67.04;99164.28;4973949;28;120834;-70
2021/11/01 03:07:35;;;;;;;23.50;3.10;;;;;;;15.85;67.55;99168.31;4982274;28;120765;-70
2021/11/01 03:10:04;;;;;;;21.20;3.38;;;;;;;15.83;67.68;99159.78;4974640;28;119569;-70
2021/11/01 03:12:30;;;;;;;19.38;2.67;;;;;;;15.81;67.38;99169.88;4938501;28;120498;-73
2021/11/01 03:14:58;;;;;;;24.00;3.10;;;;;;;15.80;67.45;99163.59;4976450;28;119592;-70
2021/11/01 03:17:27;;;;;;;23.02;3.53;;;;;;;15.79;67.69;99164.88;4958035;28;119745;-70
2021/11/01 03:20:04;;;;;;;19.48;3.55;;;;;;;15.77;67.45;99161.88;4964597;28;120502;-70
2021/11/01 03:22:42;;;;;;;16.90;3.17;;;;;;;15.75;67.26;99158.16;4973054;28;119997;-70
2021/11/01 03:25:19;;;;;;;23.73;3.45;;;;;;;15.75;67.53;99172.72;4973822;28;123345;-70
2021/11/01 03:27:51;;;;;;;20.90;3.20;;;;;;;15.71;67.30;99163.22;4976038;28;119941;-70
2021/11/01 03:30:18;;;;;;;20.08;3.05;;;;;;;15.64;67.63;99156.28;4979246;28;119892;-70
2021/11/01 03:32:45;;;;;;;23.75;3.63;;;;;;;15.67;67.25;99160.03;4955485;28;119576;-70
2021/11/01 03:35:12;;;;;;;28.83;3.45;;;;;;;15.64;67.10;99164.56;4973358;28;119374;-70
2021/11/01 03:37:41;;;;;;;22.92;3.67;;;;;;;15.49;67.51;99153.91;4972929;28;119564;-69
2021/11/01 03:40:07;;;;;;;20.05;3.20;;;;;;;15.57;67.31;99162.34;4972957;28;120504;-69
2021/11/01 03:42:34;;;;;;;20.83;3.72;;;;;;;15.56;67.55;99166.38;4974560;28;119978;-71
2021/11/01 03:45:04;;;;;;;27.38;3.40;;;;;;;15.63;67.61;99179.66;4978592;28;119658;-69
2021/11/01 03:47:33;;;;;;;18.63;3.88;;;;;;;15.64;67.72;99181.91;4974622;28;120458;-70
2021/11/01 03:50:05;;;;;;;16.52;3.63;;;;;;;15.65;67.39;99174.34;4973556;28;119494;-69
2021/11/01 03:52:36;;;;;;;23.60;3.72;;;;;;;15.63;67.66;99179.66;4977108;28;120286;-70
2021/11/01 03:55:10;;;;;;;25.50;3.72;;;;;;;15.65;67.73;99177.13;4964121;28;119899;-70
2021/11/01 03:57:36;;;;;;;22.55;3.72;;;;;;;15.67;67.63;99171.06;4955688;28;119585;-70
2021/11/01 04:00:06;;;;;;;18.52;4.03;;;;;;;15.69;67.85;99179.59;4973352;28;119864;-70
2021/11/01 04:02:34;;;;;;;27.10;4.50;;;;;;;15.70;67.34;99176.31;4977139;28;119968;-71
2021/11/01 04:05:03;;;;;;;29.70;4.25;;;;;;;15.70;67.25;99172.78;4976015;28;120605;-69
2021/11/01 04:07:31;;;;;;;25.55;4.00;;;;;;;15.72;66.93;99175.78;4978410;28;121030;-70
2021/11/01 04:09:57;;;;;;;27.48;4.78;;;;;;;15.70;67.45;99179.06;4977843;28;119752;-69
2021/11/01 04:12:23;;;;;;;31.40;4.30;;;;;;;15.70;66.92;99176.31;4977007;28;120071;-69
2021/11/01 04:14:53;;;;;;;18.48;4.22;;;;;;;15.67;67.11;99165.53;4983592;28;120020;-70
2021/11/01 04:17:27;;;;;;;29.52;4.43;;;;;;;15.69;66.66;99177.56;4981161;28;120103;-69
2021/11/01 04:20:01;;;;;;;19.73;4.45;;;;;;;15.67;66.99;99182.13;4975551;28;119565;-70
2021/11/01 04:22:31;;;;;;;26.02;5.03;;;;;;;15.68;67.20;99178.84;4978780;28;119670;-70
2021/11/01 04:24:56;;;;;;;30.05;4.95;;;;;;;15.68;67.13;99178.09;4979360;28;120013;-69
2021/11/01 04:27:22;;;;;;;23.17;4.43;;;;;;;15.65;66.95;99199.97;4975173;28;122403;-70
2021/11/01 04:29:47;;;;;;;25.92;5.00;;;;;;;15.63;67.05;99193.47;4943011;28;119604;-69
2021/11/01 04:32:21;;;;;;;21.90;4.47;;;;;;;15.61;67.56;99196.00;4958393;28;120021;-70
2021/11/01 04:34:57;;;;;;;;;;;;;;;15.58;67.19;99216.34;4978765;28;122391;-69
2021/11/01 04:37:23;;;;;;;22.02;4.43;;;;;;;15.57;67.21;99204.56;4963665;28;119892;-70
2021/11/01 04:52:56;;;;;;;21.85;4.00;;;;;;;15.56;66.63;99218.91;4960294;28;120188;-70
2021/11/01 04:53:38;;;;;;;22.45;4.15;;;;;;;15.47;67.22;99222.75;4977622;28;119556;-69
2021/11/01 04:56:04;;;;;;;21.88;4.30;;;;;;;15.48;66.85;99223.50;4977464;28;119577;-70
2021/11/01 04:58:32;;;;;;;25.88;3.95;;;;;;;15.48;66.50;99218.72;4980388;28;120157;-70
2021/11/01 05:01:00;;;;;;;23.55;4.65;;;;;;;15.48;66.50;99229.03;4974921;28;119875;-70
2021/11/01 05:03:38;;;;;;;28.40;3.92;;;;;;;15.44;66.79;99231.34;4974995;28;119825;-70
2021/11/01 05:06:05;;;;;;;20.73;4.25;;;;;;;15.41;67.09;99232.38;4977595;28;120320;-70
2021/11/01 05:08:53;;;;;;;25.08;4.38;;;;;;;15.45;66.71;99230.09;4975829;28;119539;-70
2021/11/01 05:11:48;;;;;;;24.90;3.78;;;;;;;15.43;66.98;99227.09;4976617;28;119632;-70
2021/11/01 05:14:05;;;;;;;25.20;3.40;;;;;;;15.40;66.75;99225.38;4974095;28;119739;-70
2021/11/01 05:16:57;;;;;;;22.08;4.00;;;;;;;15.38;66.67;99219.59;4972449;28;119768;-70
2021/11/01 05:19:23;;;;;;;26.00;4.10;;;;;;;15.29;66.51;99215.91;4974969;28;119763;-70
2021/11/01 05:24:52;;;;;;;;;;;;;;;15.27;66.54;99221.22;4978167;28;120694;-70
2021/11/01 05:29:51;;;;;;;24.00;4.35;;;;;;;15.22;66.74;99224.78;4977224;28;119440;-69
2021/11/01 05:32:22;;;;;;;27.67;4.13;;;;;;;15.16;66.61;99232.38;4959724;28;121564;-70
2021/11/01 05:34:47;;;;;;;31.63;4.68;;;;;;;15.19;66.61;99220.28;4977818;28;120457;-70
2021/11/01 05:37:13;;;;;;;24.33;4.10;;;;;;;15.18;66.89;99227.09;4976379;28;122160;-70
2021/11/01 05:39:39;;;;;;;24.05;3.95;;;;;;;15.16;66.74;99215.81;4978343;28;120371;-70
2021/11/01 05:42:06;;;;;;;28.45;4.43;;;;;;;15.17;66.99;99224.84;4967739;28;120875;-70
2021/11/01 05:44:31;;;;;;;26.27;4.35;;;;;;;15.15;66.33;99224.63;4965357;28;120076;-70
2021/11/01 05:46:57;;;;;;;22.17;3.72;;;;;;;15.13;66.67;99222.34;4975452;28;119563;-70
2021/11/01 05:49:23;;;;;;;27.20;4.10;;;;;;;15.11;67.00;99219.34;4973671;28;120545;-69
2021/11/01 05:51:51;;;;;;;26.92;4.57;;;;;;;15.07;67.32;99215.38;4973719;28;119783;-69
2021/11/01 05:54:22;;;;;;;19.65;3.58;;;;;;;15.12;67.20;99234.66;4975848;28;119891;-69
2021/11/01 05:57:43;;;;;;;27.52;4.18;;;;;;;15.13;67.10;99238.16;4975203;28;119908;-69
2021/11/01 06:04:59;;;;;;;18.67;3.78;;;;;;;15.12;66.80;99237.41;4971276;28;121952;-70
2021/11/01 06:10:23;;;;;;;22.30;3.20;;;;;;;15.11;66.81;99237.94;4975388;28;120111;-69
2021/11/01 06:15:27;;;;;;;24.98;4.22;;;;;;;15.10;66.87;99236.44;4977197;28;120213;-69
2021/11/01 06:17:55;;;;;;;25.75;3.75;;;;;;;15.10;66.79;99239.94;4955529;28;120023;-70
2021/11/01 06:20:21;;;;;;;20.27;3.55;;;;;;;15.09;66.90;99241.22;4972250;28;120263;-70
2021/11/01 06:22:47;;;;;;;22.33;4.18;;;;;;;15.08;66.07;99248.00;4974681;28;120936;-69
2021/11/01 06:25:15;;;;;;;22.52;3.30;;;;;;;15.05;66.63;99243.50;4958953;28;121845;-69
2021/11/01 06:27:41;;;;;;;23.67;3.85;;;;;;;15.03;66.77;99243.28;4972819;28;120500;-69
2021/11/01 06:32:43;;;;;;;23.40;3.75;;;;;;;15.07;66.54;99246.50;4957287;28;120061;-70
2021/11/01 06:41:15;;;;;;;28.52;4.82;;;;;;;14.99;66.47;99240.06;4958148;28;119739;-70
2021/11/01 06:52:05;;;;;;;25.67;3.88;;;;;;;14.91;66.71;99255.69;4992886;28;119926;-69
2021/11/01 06:57:14;;;;;;;25.70;4.60;;;;;;;14.90;66.57;99271.47;4960125;28;119564;-70
2021/11/01 07:16:10;;;;;;;26.67;4.13;;;;;;;14.69;66.98;99287.72;4963794;28;120320;-71
2021/11/01 08:23:48;;;;;;;23.38;3.33;;;;;;;15.02;66.78;99305.28;4984093;28;119748;-71
2021/11/01 08:29:01;;;;;;;22.42;4.07;;;;;;;15.07;66.69;99318.31;4978499;28;119666;-70
2021/11/01 08:42:37;;;;;;;19.70;3.00;;;;;;;15.30;66.73;99307.81;4970726;28;121715;-71
2021/11/01 08:50:54;;;;;;;;;;;;;;;15.38;66.36;99317.06;4974153;28;121405;-70
2021/11/01 09:07:16;;;;;;;23.55;4.65;;;;;;;15.44;65.81;99317.00;4977178;28;119614;-70
2021/11/01 09:12:57;;;;;;;21.50;4.47;;;;;;;15.43;65.32;99312.75;4972654;28;123010;-70
2021/11/01 09:23:25;;;;;;;13.93;4.05;;;;;;;15.68;65.46;99319.81;4975387;28;120792;-70
2021/11/01 09:25:56;;;;;;;15.88;4.07;;;;;;;15.73;64.98;99321.75;4956435;28;123161;-70
2021/11/01 09:36:35;;;;;;;16.40;4.60;;;;;;;15.75;64.37;99312.94;4976256;28;123138;-70
2021/11/01 09:41:33;;;;;;;14.88;4.05;;;;;;;15.84;64.06;99304.28;4961788;28;120336;-70
2021/11/01 09:44:04;;;;;;;13.20;4.32;;;;;;;15.85;64.51;99311.31;4972578;28;120531;-70
2021/11/01 09:46:30;;;;;;;16.20;4.35;;;;;;;15.87;63.85;99303.28;4972959;28;120307;-70
2021/11/01 09:49:12;;;;;;;15.13;4.25;;;;;;;15.88;63.32;99299.25;4974626;28;120429;-70
2021/11/01 09:51:38;;;;;;;19.95;3.92;;;;;;;15.92;63.67;99311.50;4968673;28;120133;-70
2021/11/01 09:54:07;;;;;;;19.45;5.20;;;;;;;15.94;63.33;99314.50;4981865;28;120098;-71
2021/11/01 09:57:20;;;;;;;15.70;4.00;;;;;;;15.99;63.91;99320.47;4983157;28;120924;-70
2021/11/01 09:59:19;;;;;;;15.23;4.47;;;;;;;16.03;63.96;99309.88;4977321;28;120050;-70
2021/11/01 10:01:48;;;;;;;18.02;3.90;;;;;;;16.05;63.43;99307.31;4981132;28;120815;-70
2021/11/01 10:04:20;;;;;;;18.65;4.28;;;;;;;16.11;63.36;99311.53;4961209;28;120749;-70
2021/11/01 10:07:18;;;;;;;16.08;4.30;;;;;;;16.15;63.33;99312.00;4974825;28;119956;-70
2021/11/01 10:09:35;;;;;;;12.73;3.88;;;;;;;16.14;62.49;99307.72;4967802;28;120378;-70
2021/11/01 10:12:00;;;;;;;14.57;3.85;;;;;;;16.18;63.11;99313.72;4980700;28;120276;-71
2021/11/01 10:14:26;;;;;;;17.38;3.95;;;;;;;16.18;62.32;99307.44;4956472;28;120128;-70
2021/11/01 10:19:42;;;;;;;16.90;4.20;;;;;;;16.18;62.45;99318.50;4973710;28;119726;-71
2021/11/01 10:22:19;;;;;;;16.10;3.83;;;;;;;16.18;62.54;99302.66;4976512;28;120460;-70
2021/11/01 10:24:44;;;;;;;15.10;4.22;;;;;;;16.17;62.17;99306.69;4972906;28;119944;-70
2021/11/01 10:27:16;;;;;;;15.07;3.58;;;;;;;16.24;62.54;99311.63;4953786;28;120340;-70
2021/11/01 10:29:58;;;;;;;13.40;3.95;;;;;;;16.29;62.54;99323.88;4972973;28;120218;-71
2021/11/01 10:32:26;;;;;;;14.82;3.80;;;;;;;16.27;62.72;99316.09;4956862;28;120396;-70
2021/11/01 10:35:23;;;;;;;12.32;3.70;;;;;;;16.29;62.12;99326.63;4970167;28;122243;-70
2021/11/01 10:43:49;;;;;;;13.90;4.25;;;;;;;16.33;62.01;99332.66;4974957;28;120308;-70
2021/11/01 11:17:04;;;;;;;15.38;4.18;;;;;;;16.32;61.30;99328.34;4953361;28;123541;-70
2021/11/01 11:27:44;;;;;;;13.20;4.00;;;;;;;16.35;61.11;99345.97;4970340;28;120024;-71
2021/11/01 11:48:15;;;;;;;13.55;3.05;;;;;;;16.27;60.90;99354.84;4961697;28;119382;-70
2021/11/01 11:50:41;;;;;;;10.88;3.00;;;;;;;16.27;60.93;99351.31;4958301;28;120904;-70
2021/11/01 11:53:21;;;;;;;9.15;2.60;;;;;;;16.31;60.61;99357.28;4975626;28;120303;-70
2021/11/01 11:56:11;;;;;;;6.88;2.45;;;;;;;16.33;59.84;99354.78;4973601;28;119835;-70
2021/11/01 11:58:39;;;;;;;11.88;2.35;;;;;;;16.32;59.55;99349.75;4968237;28;120073;-70
2021/11/01 12:01:25;;;;;;;8.23;2.75;;;;;;;16.32;59.98;99346.97;4981052;28;119758;-70
2021/11/01 12:03:51;;;;;;;14.73;3.05;;;;;;;16.26;59.37;99349.81;4970146;28;120359;-70
2021/11/01 12:06:22;;;;;;;11.32;2.65;;;;;;;16.20;59.12;99351.91;4954368;28;119940;-70
2021/11/01 12:09:03;;;;;;;11.45;2.50;;;;;;;16.16;58.81;99357.00;4969762;28;121625;-71
2021/11/01 12:11:55;;;;;;;11.38;2.67;;;;;;;16.15;60.01;99350.72;4940661;28;121445;-70
2021/11/01 12:14:40;;;;;;;12.40;2.40;;;;;;;16.23;59.48;99342.56;4971259;28;120061;-70
2021/11/01 12:17:07;;;;;;;12.50;2.47;;;;;;;16.26;59.62;99358.13;4960120;28;120569;-70
2021/11/01 12:19:35;;;;;;;10.52;2.65;;;;;;;16.32;59.77;99347.72;4969077;28;120469;-70
2021/11/01 12:22:05;;;;;;;9.13;2.33;;;;;;;16.35;58.78;99351.50;4971276;28;120674;-70
2021/11/01 12:24:33;;;;;;;7.80;2.35;;;;;;;16.36;58.54;99347.47;4978444;28;119851;-70
2021/11/01 12:27:05;;;;;;;8.32;2.10;;;;;;;16.36;59.12;99348.19;4969647;28;120650;-71
2021/11/01 12:29:32;;;;;;;9.80;2.42;;;;;;;16.36;59.18;99348.19;4954822;28;119564;-70
2021/11/01 12:32:03;;;;;;;10.00;2.17;;;;;;;16.36;58.02;99344.69;4974245;28;120682;-70
2021/11/01 12:34:29;;;;;;;5.50;1.40;;;;;;;16.39;57.95;99352.69;4971255;28;120958;-70
2021/11/01 12:37:32;;;;;;;9.15;1.90;;;;;;;16.34;57.63;99361.81;4967220;28;119538;-71
2021/11/01 12:40:06;;;;;;;7.07;2.13;;;;;;;16.37;58.02;99365.56;4951724;28;120674;-71
2021/11/01 12:58:58;;;;;;;9.60;1.90;;;;;;;16.43;58.14;99364.22;4963644;28;120022;-70
2021/11/01 13:01:25;;;;;;;8.25;2.03;;;;;;;16.47;58.18;99361.88;4974180;28;121672;-71
2021/11/01 13:03:55;;;;;;;9.63;2.35;;;;;;;16.46;58.63;99368.69;4956684;28;119549;-70
2021/11/01 13:06:54;;;;;;;7.65;2.03;;;;;;;16.45;57.96;99358.16;4973720;28;120011;-71
2021/11/01 13:09:24;;;;;;;7.05;2.05;;;;;;;16.45;57.85;99353.34;4965430;28;119947;-70
2021/11/01 13:19:52;;;;;;;10.43;2.20;;;;;;;16.21;58.02;99361.72;4974032;28;120497;-70
2021/11/01 13:22:30;;;;;;;6.40;2.30;;;;;;;16.20;58.66;99352.66;4983977;28;119804;-71
2021/11/01 13:25:12;;;;;;;5.95;2.22;;;;;;;16.24;59.15;99352.38;4966709;28;119597;-71
2021/11/01 13:36:29;;;;;;;7.18;1.75;;;;;;;16.30;58.57;99358.56;4983146;28;120088;-71
2021/11/01 13:38:59;;;;;;;6.32;1.90;;;;;;;16.31;58.72;99357.28;4971476;28;121957;-70
2021/11/01 13:41:29;;;;;;;6.60;2.08;;;;;;;16.33;57.86;99354.03;4972488;28;120344;-71
2021/11/01 13:44:11;;;;;;;14.70;2.83;;;;;;;16.36;58.40;99364.81;4983427;28;120264;-70
2021/11/01 13:46:48;;;;;;;11.23;2.55;;;;;;;16.34;57.87;99361.06;4974137;28;120115;-70
2021/11/01 13:49:28;;;;;;;9.32;2.17;;;;;;;16.33;57.18;99354.78;4973174;28;119614;-71
2021/11/01 13:52:10;;;;;;;7.03;1.95;;;;;;;16.34;57.60;99355.53;4968208;28;120686;-71
2021/11/01 13:54:47;;;;;;;10.82;2.30;;;;;;;16.31;57.19;99351.75;4973886;28;120219;-70
2021/11/01 13:57:16;;;;;;;10.77;2.35;;;;;;;16.27;57.03;99352.06;4969809;28;119859;-70
2021/11/01 13:59:51;;;;;;;5.38;1.98;;;;;;;16.26;57.60;99360.88;4978012;28;122302;-70
2021/11/01 15:03:00;;;;;;;6.93;2.35;;;;;;;15.98;59.08;99393.66;4974347;28;124511;-71
2021/11/01 15:11:03;;;;;;;10.65;2.30;;;;;;;15.86;58.99;99406.84;4974395;28;119429;-70
2021/11/01 15:13:45;;;;;;;9.43;2.33;;;;;;;15.81;58.46;99413.91;4973347;28;120524;-71
2021/11/01 15:16:57;;;;;;;9.30;2.00;;;;;;;15.76;58.65;99411.94;4969353;28;120712;-71
2021/11/01 15:21:57;;;;;;;8.73;2.30;;;;;;;15.70;59.33;99411.25;4968500;28;120208;-71
2021/11/01 16:19:27;;;;;;;7.78;2.10;;;;;;;14.80;60.85;99449.72;4982983;28;122711;-70
2021/11/01 16:21:53;;;;;;;10.00;2.30;;;;;;;14.76;60.22;99454.78;4987502;28;119455;-70
2021/11/01 16:24:19;;;;;;;7.93;1.98;;;;;;;14.77;60.56;99458.28;4975069;28;121663;-70
2021/11/01 16:26:44;;;;;;;8.55;2.22;;;;;;;14.71;60.86;99448.03;4967230;28;119631;-70
2021/11/01 16:29:13;;;;;;;7.03;2.20;;;;;;;14.71;60.98;99456.31;4982346;28;119494;-70
2021/11/01 16:31:49;;;;;;;8.82;2.42;;;;;;;14.71;61.61;99452.78;4948376;28;119803;-70
2021/11/01 16:34:20;;;;;;;8.75;2.30;;;;;;;14.71;60.91;99461.81;4979984;28;119525;-70
2021/11/01 16:39:20;;;;;;;6.63;2.30;;;;;;;14.68;60.95;99471.13;4968155;28;122212;-70
2021/11/01 16:41:48;;;;;;;5.90;2.15;;;;;;;14.64;61.32;99470.63;4976234;28;119558;-70
2021/11/01 16:44:18;;;;;;;6.72;2.10;;;;;;;14.58;60.99;99466.38;4969052;28;121669;-70
2021/11/01 16:46:49;;;;;;;11.45;2.65;;;;;;;14.58;60.89;99471.91;4977624;28;119607;-70
2021/11/01 16:49:17;;;;;;;10.07;2.40;;;;;;;14.56;60.91;99477.91;4937520;28;119806;-70
2021/11/01 16:51:44;;;;;;;6.78;2.58;;;;;;;14.51;61.15;99478.69;4973493;28;119460;-70
2021/11/01 16:54:13;;;;;;;7.30;2.80;;;;;;;14.53;61.48;99498.25;4970836;28;119970;-70
2021/11/01 16:59:39;;;;;;;10.15;3.03;;;;;;;14.51;61.38;99486.97;4978746;28;120704;-70
2021/11/01 17:04:50;;;;;;;6.65;2.83;;;;;;;14.56;61.71;99499.25;4971323;28;120938;-70
2021/11/01 17:10:20;;;;;;;9.70;2.80;;;;;;;14.61;62.02;99504.00;4954733;28;120378;-70
2021/11/01 18:41:33;;;;;;;12.30;7.18;;;;;;;14.86;59.77;99562.88;4957119;28;119759;-70
2021/11/01 18:52:12;;;;;;;20.77;10.35;;;;;;;14.82;59.13;99559.63;4962408;28;120239;-71
2021/11/01 18:54:44;;;;;;;15.75;9.15;;;;;;;14.78;58.80;99570.19;4957342;28;123524;-71
2021/11/01 18:57:12;;;;;;;16.15;8.93;;;;;;;14.74;59.13;99568.44;4969437;28;120329;-71
2021/11/01 18:59:41;;;;;;;10.70;7.50;;;;;;;14.78;59.82;99570.19;4970953;28;119779;-70
2021/11/01 19:05:57;;;;;;;17.00;9.77;;;;;;;14.80;59.58;99570.44;4985197;28;121417;-71
2021/11/01 19:16:51;;;;;;;21.52;11.25;;;;;;;14.70;59.38;99567.97;4979290;28;119401;-70
2021/11/01 21:24:30;;;;;;;10.75;6.10;;;;;;;13.84;60.80;99583.50;4971553;28;119494;-71
2021/11/01 21:27:03;;;;;;;14.73;5.72;;;;;;;13.43;61.54;99566.63;4971333;28;121891;-70
2021/11/01 21:29:31;;;;;;;12.50;5.60;;;;;;;13.44;61.29;99574.38;4970967;28;120233;-70
2021/11/01 21:32:00;;;;;;;8.20;4.80;;;;;;;13.45;61.22;99575.88;4971977;28;120435;-70
2021/11/01 21:34:35;;;;;;;12.63;6.70;;;;;;;13.43;61.18;99567.38;4976117;28;122871;-70
2021/11/01 21:37:04;;;;;;;15.88;7.00;;;;;;;13.42;61.45;99571.38;4973997;28;120092;-70
2021/11/01 21:39:30;;;;;;;21.38;13.95;;;;;;;13.41;61.36;99569.13;4974158;28;120619;-70
2021/11/01 21:41:57;;;;;;;17.42;9.25;;;;;;;13.38;61.55;99570.88;4973224;28;120438;-70
2021/11/01 21:44:23;;;;;;;33.65;15.70;;;;;;;13.36;61.60;99578.88;4955278;28;121107;-70
2021/11/01 21:46:49;;;;;;;36.25;18.50;;;;;;;13.32;61.64;99588.63;4966301;28;120264;-70
2021/11/01 21:49:18;;;;;;;32.20;17.50;;;;;;;13.31;61.39;99582.38;4960497;28;120511;-70
2021/11/01 21:51:44;;;;;;;21.83;12.38;;;;;;;13.29;61.59;99578.59;4976176;28;119717;-70
2021/11/01 21:54:27;;;;;;;18.65;10.95;;;;;;;13.26;61.77;99585.13;4937280;28;119535;-70
2021/11/01 21:56:59;;;;;;;14.98;10.85;;;;;;;13.22;61.76;99588.06;4980416;28;119633;-70
2021/11/01 22:18:31;;;;;;;16.90;5.32;;;;;;;12.87;61.73;99600.16;4973149;28;121403;-70
2021/11/01 22:21:17;;;;;;;9.13;5.30;;;;;;;12.79;61.76;99599.13;4977071;28;119522;-70
2021/11/01 22:39:37;;;;;;;13.82;5.40;;;;;;;12.54;62.17;99573.19;4972123;28;119741;-71
2021/11/01 22:42:34;;;;;;;10.63;5.53;;;;;;;12.50;62.13;99577.41;4979075;28;120033;-70
2021/11/01 22:45:14;;;;;;;11.23;5.75;;;;;;;12.51;62.31;99573.41;4975183;28;120344;-70
2021/11/01 22:56:11;;;;;;;12.80;5.68;;;;;;;12.42;62.23;99579.84;4974488;28;119770;-70
2021/11/01 22:58:42;;;;;;;10.20;5.68;;;;;;;12.40;62.40;99576.09;4974714;28;119528;-69
2021/11/01 23:01:34;;;;;;;8.98;5.13;;;;;;;12.39;62.64;99566.34;4972876;28;119966;-69
2021/11/01 23:04:09;;;;;;;11.02;5.55;;;;;;;12.40;63.29;99570.59;4972441;28;119413;-70
2021/11/01 23:33:49;;;;;;;11.57;5.57;;;;;;;12.06;62.82;99537.34;4967621;28;120059;-70
2021/11/01 23:36:15;;;;;;;10.02;5.97;;;;;;;12.06;63.20;99528.34;4971202;28;119414;-70
2021/11/01 23:38:41;;;;;;;9.80;6.03;;;;;;;12.05;63.30;99527.59;4970712;28;120612;-70